createdAt,value
2018-04-12T00:00:25.318Z,13.40
2018-04-12T00:02:54.218Z,13.40
2018-04-12T00:05:22.367Z,13.40
2018-04-12T00:07:51.916Z,13.40
2018-04-12T00:10:24.387Z,13.50
2018-04-12T00:12:52.618Z,13.40
2018-04-12T00:15:20.744Z,13.50
2018-04-12T00:17:48.894Z,13.50
2018-04-12T00:20:17.017Z,13.60
2018-04-12T00:22:45.145Z,13.70
2018-04-12T00:25:13.285Z,13.80
2018-04-12T00:27:42.176Z,13.90
2018-04-12T00:30:11.084Z,13.90
2018-04-12T00:32:39.209Z,13.90
2018-04-12T00:35:07.348Z,13.90
2018-04-12T00:37:35.508Z,13.90
2018-04-12T00:40:03.666Z,13.90
2018-04-12T00:42:31.792Z,14.00
2018-04-12T00:45:00.633Z,13.90
2018-04-12T00:47:28.756Z,13.90
2018-04-12T00:49:56.880Z,13.90
2018-04-12T00:52:25.129Z,13.90
2018-04-12T00:54:54.140Z,13.80
2018-04-12T00:57:22.388Z,13.80
2018-04-12T00:59:51.976Z,13.80
2018-04-12T01:02:20.200Z,13.70
2018-04-12T01:04:48.988Z,13.70
2018-04-12T01:07:17.109Z,13.60
2018-04-12T01:09:45.965Z,13.60
2018-04-12T01:12:14.176Z,13.50
2018-04-12T01:14:42.298Z,13.50
2018-04-12T01:17:11.160Z,13.40
2018-04-12T01:19:40.069Z,13.40
2018-04-12T01:22:08.257Z,13.40
2018-04-12T01:24:36.476Z,13.40
2018-04-12T01:27:04.640Z,13.40
2018-04-12T01:29:33.590Z,13.30
2018-04-12T01:32:04.626Z,13.20
2018-04-12T01:34:32.784Z,13.20
2018-04-12T01:37:01.781Z,13.20
2018-04-12T01:39:30.745Z,13.20
2018-04-12T01:41:58.913Z,13.20
2018-04-12T01:44:27.877Z,13.20
2018-04-12T01:46:56.062Z,13.20
2018-04-12T01:49:24.222Z,13.20
2018-04-12T01:51:52.506Z,13.20
2018-04-12T01:54:20.688Z,13.10
2018-04-12T01:56:48.878Z,13.10
2018-04-12T01:59:17.030Z,13.10
2018-04-12T02:37:17.576Z,12.60
2018-04-12T02:39:45.705Z,12.50
2018-04-12T02:45:11.384Z,12.40
2018-04-12T02:47:39.542Z,12.40
2018-04-12T02:53:05.104Z,12.40
2018-04-12T02:58:30.474Z,12.30
2018-04-12T03:06:53.136Z,12.20
2018-04-12T03:09:22.085Z,12.10
2018-04-12T03:11:50.250Z,12.10
2018-04-12T03:14:18.400Z,12.10
2018-04-12T03:16:46.550Z,12.10
2018-04-12T03:19:14.689Z,12.10
2018-04-12T03:21:42.829Z,12.10
2018-04-12T03:24:11.006Z,12.10
2018-04-12T03:26:39.265Z,12.10
2018-04-12T03:29:08.101Z,12.00
2018-04-12T03:31:36.411Z,12.00
2018-04-12T03:34:04.570Z,12.00
2018-04-12T03:36:33.501Z,12.00
2018-04-12T03:39:01.668Z,12.00
2018-04-12T03:41:29.842Z,12.00
2018-04-12T03:43:58.002Z,12.00
2018-04-12T03:46:26.175Z,12.00
2018-04-12T03:48:54.342Z,11.90
2018-04-12T03:51:22.478Z,11.90
2018-04-12T03:53:50.599Z,11.90
2018-04-12T03:56:18.770Z,11.90
2018-04-12T03:58:47.642Z,11.90
2018-04-12T04:01:15.839Z,11.90
2018-04-12T04:03:44.005Z,11.90
2018-04-12T04:06:12.133Z,11.90
2018-04-12T04:08:40.371Z,11.90
2018-04-12T04:11:08.535Z,11.80
2018-04-12T04:13:36.694Z,11.80
2018-04-12T04:16:22.853Z,11.90
2018-04-12T04:19:08.910Z,11.80
2018-04-12T04:21:37.094Z,11.80
2018-04-12T04:24:05.375Z,11.80
2018-04-12T04:26:33.541Z,11.70
2018-04-12T04:29:01.686Z,11.70
2018-04-12T04:31:30.514Z,11.70
2018-04-12T04:33:58.690Z,11.70
2018-04-12T04:36:27.604Z,11.70
2018-04-12T04:38:56.523Z,11.70
2018-04-12T04:41:24.702Z,11.70
2018-04-12T04:43:52.874Z,11.70
2018-04-12T04:46:21.013Z,11.80
2018-04-12T04:48:50.056Z,11.90
2018-04-12T04:51:18.222Z,11.90
2018-04-12T04:53:46.434Z,11.90
2018-04-12T04:56:15.382Z,12.00
2018-04-12T04:58:43.512Z,12.00
2018-04-12T05:01:13.148Z,12.10
2018-04-12T05:03:41.276Z,12.10
2018-04-12T05:06:09.417Z,12.20
2018-04-12T05:08:37.614Z,12.20
2018-04-12T05:11:05.866Z,12.20
2018-04-12T05:13:34.141Z,12.30
2018-04-12T05:16:02.540Z,12.40
2018-04-12T05:18:30.702Z,12.40
2018-04-12T05:20:59.740Z,12.60
2018-04-12T05:23:27.902Z,12.70
2018-04-12T05:25:57.686Z,12.90
2018-04-12T05:28:25.862Z,12.90
2018-04-12T05:30:53.993Z,13.00
2018-04-12T05:33:22.134Z,13.00
2018-04-12T05:35:51.949Z,13.20
2018-04-12T05:38:20.931Z,13.20
2018-04-12T05:40:49.825Z,13.30
2018-04-12T05:43:18.729Z,13.40
2018-04-12T05:45:46.864Z,13.30
2018-04-12T05:48:15.168Z,13.50
2018-04-12T05:50:44.198Z,13.60
2018-04-12T05:53:12.346Z,13.60
2018-04-12T05:55:40.476Z,13.60
2018-04-12T05:58:08.635Z,13.60
2018-04-12T06:00:36.777Z,13.70
2018-04-12T06:03:04.916Z,13.70
2018-04-12T06:05:33.891Z,13.80
2018-04-12T06:08:02.119Z,13.80
2018-04-12T06:10:30.906Z,13.90
2018-04-12T06:12:59.084Z,14.10
2018-04-12T06:15:28.018Z,14.20
2018-04-12T06:17:56.946Z,14.40
2018-04-12T06:20:25.119Z,14.40
2018-04-12T06:22:53.991Z,14.60
2018-04-12T06:25:22.928Z,14.70
2018-04-12T06:27:51.089Z,14.70
2018-04-12T06:30:19.218Z,14.70
2018-04-12T06:32:48.188Z,15.00
2018-04-12T06:35:16.308Z,15.00
2018-04-12T06:37:44.430Z,15.10
2018-04-12T06:40:13.462Z,15.20
2018-04-12T06:42:42.488Z,15.30
2018-04-12T06:45:10.632Z,15.40
2018-04-12T06:47:51.849Z,15.60
2018-04-12T06:50:21.697Z,15.70
2018-04-12T06:52:51.553Z,16.00
2018-04-12T06:55:19.673Z,16.00
2018-04-12T06:57:48.655Z,16.20
2018-04-12T07:00:16.821Z,16.30
2018-04-12T07:02:44.989Z,16.50
2018-04-12T07:05:13.116Z,16.50
2018-04-12T07:07:41.263Z,16.60
2018-04-12T07:10:10.150Z,16.90
2018-04-12T07:12:38.301Z,16.90
2018-04-12T07:15:06.481Z,17.00
2018-04-12T07:17:34.658Z,17.10
2018-04-12T07:20:02.910Z,17.20
2018-04-12T07:22:31.097Z,17.20
2018-04-12T07:24:59.226Z,17.30
2018-04-12T07:27:27.356Z,17.50
2018-04-12T07:29:55.496Z,17.70
2018-04-12T07:32:23.651Z,17.70
2018-04-12T07:34:51.806Z,17.90
2018-04-12T07:37:20.017Z,18.00
2018-04-12T07:39:48.156Z,18.10
2018-04-12T07:42:16.337Z,18.10
2018-04-12T07:44:44.496Z,18.20
2018-04-12T07:47:12.621Z,18.30
2018-04-12T07:49:40.818Z,18.50
2018-04-12T07:52:09.849Z,18.80
2018-04-12T07:54:38.019Z,18.80
2018-04-12T07:57:06.190Z,19.00
2018-04-12T07:59:34.313Z,19.20
2018-04-12T08:02:02.502Z,19.20
2018-04-12T08:04:30.653Z,19.30
2018-04-12T08:06:58.805Z,19.40
2018-04-12T08:09:26.986Z,19.50
2018-04-12T08:11:55.208Z,19.40
2018-04-12T08:14:24.093Z,19.50
2018-04-12T08:16:52.992Z,19.50
2018-04-12T08:19:22.594Z,19.50
2018-04-12T08:21:50.802Z,19.60
2018-04-12T08:24:18.934Z,19.60
2018-04-12T08:26:47.853Z,19.80
2018-04-12T08:29:16.043Z,19.80
2018-04-12T08:31:45.030Z,19.80
2018-04-12T08:34:13.157Z,19.80
2018-04-12T08:36:42.117Z,19.90
2018-04-12T08:39:10.454Z,19.90
2018-04-12T08:41:38.581Z,20.20
2018-04-12T08:44:06.736Z,20.40
2018-04-12T08:46:34.888Z,20.40
2018-04-12T08:49:03.013Z,20.70
2018-04-12T08:51:31.917Z,21.10
2018-04-12T08:54:00.829Z,21.30
2018-04-12T08:56:29.002Z,21.30
2018-04-12T08:58:57.197Z,21.40
2018-04-12T09:01:25.351Z,21.50
2018-04-12T09:03:53.497Z,21.60
2018-04-12T09:06:22.420Z,22.00
2018-04-12T09:08:50.656Z,22.00
2018-04-12T09:11:19.986Z,22.40
2018-04-12T09:13:48.168Z,22.40
2018-04-12T09:16:16.291Z,22.60
2018-04-12T09:18:45.187Z,23.00
2018-04-12T09:21:14.137Z,23.30
2018-04-12T09:23:42.257Z,23.20
2018-04-12T09:26:11.157Z,23.70
2018-04-12T09:28:39.331Z,23.60
2018-04-12T09:31:07.453Z,23.80
2018-04-12T09:33:35.633Z,23.90
2018-04-12T09:36:03.768Z,24.00
2018-04-12T09:38:32.041Z,24.00
2018-04-12T09:41:00.157Z,24.00
2018-04-12T09:43:28.276Z,24.10
2018-04-12T09:45:56.462Z,24.20
2018-04-12T09:48:24.686Z,24.40
2018-04-12T09:50:53.581Z,24.50
2018-04-12T09:53:22.514Z,24.70
2018-04-12T09:55:50.640Z,24.70
2018-04-12T09:58:19.556Z,25.10
2018-04-12T10:00:53.216Z,25.10
2018-04-12T10:03:21.376Z,25.20
2018-04-12T10:05:54.876Z,25.40
2018-04-12T10:08:27.829Z,25.50
2018-04-12T10:10:55.984Z,25.60
2018-04-12T10:13:24.113Z,25.70
2018-04-12T10:15:52.252Z,25.70
2018-04-12T10:18:20.399Z,25.90
2018-04-12T10:20:48.522Z,26.10
2018-04-12T10:23:16.733Z,26.30
2018-04-12T10:25:45.696Z,26.70
2018-04-12T10:28:13.850Z,26.60
2018-04-12T10:30:41.996Z,26.70
2018-04-12T10:33:10.111Z,26.80
2018-04-12T10:35:38.255Z,26.80
2018-04-12T10:38:06.450Z,27.00
2018-04-12T10:40:34.589Z,27.00
2018-04-12T10:43:02.753Z,26.90
2018-04-12T10:45:30.936Z,26.90
2018-04-12T10:47:59.086Z,27.00
2018-04-12T10:50:27.218Z,27.00
2018-04-12T10:52:55.378Z,26.80
2018-04-12T10:55:23.499Z,26.80
2018-04-12T10:57:51.666Z,27.00
2018-04-12T11:00:20.581Z,26.50
2018-04-12T11:02:48.696Z,26.40
2018-04-12T11:05:16.910Z,26.60
2018-04-12T11:07:45.143Z,27.00
2018-04-12T11:10:14.077Z,27.80
2018-04-12T11:12:42.257Z,27.80
2018-04-12T11:15:10.406Z,28.20
2018-04-12T11:17:39.321Z,28.60
2018-04-12T11:20:07.465Z,28.60
2018-04-12T11:22:36.378Z,29.30
2018-04-12T11:25:04.535Z,29.20
2018-04-12T11:27:33.549Z,29.90
2018-04-12T11:30:01.690Z,29.80
2018-04-12T11:32:30.576Z,30.90
2018-04-12T11:34:59.597Z,31.30
2018-04-12T11:37:27.719Z,31.20
2018-04-12T11:39:55.832Z,31.90
2018-04-12T11:42:24.010Z,32.70
2018-04-12T11:44:52.162Z,33.20
2018-04-12T11:47:21.083Z,32.90
2018-04-12T11:49:49.238Z,32.90
2018-04-12T11:52:17.348Z,33.50
2018-04-12T11:54:45.489Z,34.00
2018-04-12T11:57:13.645Z,35.10
2018-04-12T11:59:42.558Z,35.80
2018-04-12T12:02:10.673Z,35.70
2018-04-12T12:04:38.825Z,36.60
2018-04-12T12:07:07.105Z,36.90
2018-04-12T12:09:35.262Z,37.90
2018-04-12T12:12:03.395Z,37.60
2018-04-12T12:14:32.305Z,36.10
2018-04-12T12:17:00.457Z,36.10
2018-04-12T12:19:29.346Z,37.50
2018-04-12T12:21:58.258Z,38.50
2018-04-12T12:24:26.410Z,38.50
2018-04-12T12:26:55.323Z,40.30
2018-04-12T12:29:23.505Z,40.20
2018-04-12T12:31:51.650Z,41.00
2018-04-12T12:34:20.558Z,40.00
2018-04-12T12:36:49.657Z,40.00
2018-04-12T12:39:17.940Z,39.90
2018-04-12T12:41:46.138Z,40.30
2018-04-12T12:44:14.321Z,40.80
2018-04-12T12:46:42.499Z,41.20
2018-04-12T12:49:10.617Z,41.10
2018-04-12T12:51:38.756Z,41.80
2018-04-12T12:54:06.899Z,42.40
2018-04-12T12:56:35.050Z,41.40
2018-04-12T12:59:03.218Z,40.60
2018-04-12T13:01:31.366Z,40.60
2018-04-12T13:04:00.347Z,41.60
2018-04-12T13:06:28.549Z,41.50
2018-04-12T13:08:56.661Z,40.40
2018-04-12T13:11:24.810Z,39.80
2018-04-12T13:13:52.970Z,39.30
2018-04-12T13:16:21.117Z,39.00
2018-04-12T13:18:50.032Z,37.90
2018-04-12T13:21:18.179Z,37.90
2018-04-12T13:23:47.061Z,36.30
2018-04-12T13:26:15.196Z,36.30
2018-04-12T13:28:43.825Z,35.80
2018-04-12T13:31:12.734Z,37.30
2018-04-12T13:33:40.902Z,37.30
2018-04-12T13:36:09.033Z,39.00
2018-04-12T13:38:37.200Z,40.20
2018-04-12T13:41:05.377Z,40.80
2018-04-12T13:43:33.611Z,41.40
2018-04-12T13:46:01.729Z,42.50
2018-04-12T13:48:29.891Z,43.50
2018-04-12T13:50:58.081Z,44.00
2018-04-12T13:53:27.076Z,43.10
2018-04-12T13:55:55.245Z,43.00
2018-04-12T13:58:23.364Z,44.00
2018-04-12T14:00:51.468Z,45.40
2018-04-12T14:03:19.621Z,46.50
2018-04-12T14:05:47.773Z,47.60
2018-04-12T14:08:15.920Z,48.70
2018-04-12T14:10:44.879Z,49.00
2018-04-12T14:13:12.965Z,49.00
2018-04-12T14:15:41.169Z,48.10
2018-04-12T14:18:09.310Z,47.10
2018-04-12T14:20:37.423Z,45.00
2018-04-12T14:23:05.542Z,43.70
2018-04-12T14:25:33.729Z,43.60
2018-04-12T14:28:01.874Z,44.00
2018-04-12T14:30:29.988Z,44.20
2018-04-12T14:32:58.984Z,41.50
2018-04-12T14:35:27.182Z,41.50
2018-04-12T14:37:55.326Z,40.20
2018-04-12T14:40:24.250Z,36.80
2018-04-12T14:42:52.416Z,36.60
2018-04-12T14:45:20.562Z,36.10
2018-04-12T14:47:49.491Z,34.10
2018-04-12T14:50:17.621Z,34.00
2018-04-12T14:52:46.527Z,33.50
2018-04-12T14:55:14.652Z,33.50
2018-04-12T14:57:42.874Z,33.00
2018-04-12T15:00:10.987Z,32.90
2018-04-12T15:02:39.139Z,32.90
2018-04-12T15:05:07.304Z,32.60
2018-04-12T15:07:35.457Z,32.30
2018-04-12T15:10:04.337Z,32.00
2018-04-12T15:12:33.285Z,32.50
2018-04-12T15:15:01.419Z,32.50
2018-04-12T15:17:29.575Z,33.80
2018-04-12T15:19:58.514Z,36.60
2018-04-12T15:22:26.641Z,36.60
2018-04-12T15:24:55.535Z,38.50
2018-04-12T15:27:24.555Z,38.80
2018-04-12T15:29:52.707Z,38.80
2018-04-12T15:32:20.818Z,38.40
2018-04-12T15:34:49.043Z,37.60
2018-04-12T15:37:17.936Z,36.60
2018-04-12T15:39:46.843Z,36.50
2018-04-12T15:42:15.027Z,36.50
2018-04-12T15:44:43.152Z,36.50
2018-04-12T15:47:11.969Z,36.30
2018-04-12T15:49:40.132Z,36.20
2018-04-12T15:52:09.094Z,35.40
2018-04-12T15:54:37.250Z,35.40
2018-04-12T15:57:05.411Z,35.20
2018-04-12T15:59:33.564Z,34.90
2018-04-12T16:02:01.708Z,34.50
2018-04-12T16:04:30.621Z,33.30
2018-04-12T16:06:58.936Z,33.20
2018-04-12T16:09:27.033Z,32.60
2018-04-12T16:11:56.023Z,31.20
2018-04-12T16:14:24.926Z,30.50
2018-04-12T16:16:53.854Z,29.70
2018-04-12T16:19:22.028Z,29.60
2018-04-12T16:21:50.222Z,29.10
2018-04-12T16:24:18.382Z,28.40
2018-04-12T16:26:46.502Z,28.00
2018-04-12T16:29:15.446Z,27.40
2018-04-12T16:31:43.573Z,27.30
2018-04-12T16:34:12.604Z,26.90
2018-04-12T16:36:40.750Z,26.60
2018-04-12T16:39:08.896Z,26.30
2018-04-12T16:41:37.054Z,26.00
2018-04-12T16:44:05.215Z,25.80
2018-04-12T16:46:33.396Z,25.80
2018-04-12T16:49:01.551Z,25.50
2018-04-12T16:51:29.676Z,25.40
2018-04-12T16:53:57.814Z,25.30
2018-04-12T16:56:25.945Z,25.20
2018-04-12T16:58:54.069Z,25.20
2018-04-12T17:01:22.203Z,25.20
2018-04-12T17:03:50.454Z,25.10
2018-04-12T17:06:18.573Z,24.80
2018-04-12T17:08:46.718Z,24.60
2018-04-12T17:11:14.897Z,24.40
2018-04-12T17:13:43.025Z,24.20
2018-04-12T17:16:11.912Z,23.80
2018-04-12T17:18:40.901Z,23.70
2018-04-12T17:21:09.814Z,23.50
2018-04-12T17:23:38.716Z,23.50
2018-04-12T17:26:06.904Z,23.30
2018-04-12T17:28:35.045Z,23.10
2018-04-12T17:31:03.185Z,23.00
2018-04-12T17:33:31.335Z,22.80
2018-04-12T17:36:00.204Z,22.70
2018-04-12T17:38:29.096Z,22.50
2018-04-12T17:40:57.247Z,22.40
2018-04-12T17:43:25.387Z,22.30
2018-04-12T17:45:53.503Z,22.20
2018-04-12T17:48:21.645Z,22.10
2018-04-12T17:50:49.777Z,22.00
2018-04-12T17:53:17.957Z,21.90
2018-04-12T17:55:46.082Z,21.70
2018-04-12T17:58:14.235Z,21.70
2018-04-12T18:00:42.436Z,21.60
2018-04-12T18:03:10.584Z,21.50
2018-04-12T18:05:39.499Z,21.40
2018-04-12T18:08:07.657Z,21.40
2018-04-12T18:10:35.796Z,21.30
2018-04-12T18:13:03.955Z,21.30
2018-04-12T18:15:32.207Z,21.10
2018-04-12T18:18:00.354Z,21.10
2018-04-12T18:20:29.282Z,21.00
2018-04-12T18:22:57.441Z,21.00
2018-04-12T18:25:25.629Z,20.90
2018-04-12T18:27:53.753Z,20.80
2018-04-12T18:30:21.884Z,20.80
2018-04-12T18:32:50.074Z,20.70
2018-04-12T18:35:18.990Z,20.60
2018-04-12T18:37:47.116Z,20.50
2018-04-12T18:40:15.262Z,20.50
2018-04-12T18:42:44.058Z,20.50
2018-04-12T18:45:12.212Z,20.40
2018-04-12T18:47:41.102Z,20.40
2018-04-12T18:50:09.258Z,20.40
2018-04-12T18:52:37.452Z,20.40
2018-04-12T18:55:05.601Z,20.30
2018-04-12T18:57:33.754Z,20.30
2018-04-12T19:00:04.376Z,20.20
2018-04-12T19:02:33.447Z,20.20
2018-04-12T19:05:01.604Z,20.20
2018-04-12T19:07:30.601Z,20.10
2018-04-12T19:09:58.784Z,20.10
2018-04-12T19:12:26.960Z,20.10
2018-04-12T19:14:55.120Z,20.10
2018-04-12T19:17:23.309Z,20.00
2018-04-12T19:19:51.467Z,20.00
2018-04-12T19:22:19.659Z,20.00
2018-04-12T19:24:47.855Z,19.90
2018-04-12T19:27:20.121Z,19.80
2018-04-12T19:29:49.055Z,19.80
2018-04-12T19:32:17.241Z,19.80
2018-04-12T19:34:45.388Z,19.70
2018-04-12T19:37:13.516Z,19.70
2018-04-12T19:39:41.785Z,19.70
2018-04-12T19:42:09.947Z,19.70
2018-04-12T19:44:38.109Z,19.70
2018-04-12T19:47:07.156Z,19.70
2018-04-12T19:49:36.089Z,19.70
2018-04-12T19:52:04.510Z,19.70
2018-04-12T19:54:33.457Z,19.60
2018-04-12T19:57:01.620Z,19.60
2018-04-12T19:59:29.778Z,19.60
2018-04-12T20:01:57.929Z,19.60
2018-04-12T20:04:26.807Z,19.50
2018-04-12T20:06:55.697Z,19.50
2018-04-12T20:09:24.648Z,19.40
2018-04-12T20:11:52.807Z,19.40
2018-04-12T20:14:21.600Z,19.40
2018-04-12T20:16:49.716Z,19.40
2018-04-12T20:19:17.855Z,19.30
2018-04-12T20:21:46.031Z,19.30
2018-04-12T20:24:14.182Z,19.20
2018-04-12T20:26:42.409Z,19.20
2018-04-12T20:29:11.300Z,19.10
2018-04-12T20:31:40.248Z,19.10
2018-04-12T20:34:08.376Z,19.00
2018-04-12T20:36:37.309Z,19.00
2018-04-12T20:39:05.491Z,18.90
2018-04-12T20:41:33.678Z,18.90
2018-04-12T20:44:01.875Z,18.90
2018-04-12T20:46:30.767Z,18.80
2018-04-12T20:49:01.073Z,18.80
2018-04-12T20:51:29.225Z,18.70
2018-04-12T20:53:57.493Z,18.80
2018-04-12T20:56:25.647Z,18.70
2018-04-12T20:58:53.785Z,18.70
2018-04-12T21:01:22.719Z,18.70
2018-04-12T21:03:51.722Z,18.60
2018-04-12T21:06:19.910Z,18.60
2018-04-12T21:08:48.088Z,18.60
2018-04-12T21:11:16.233Z,18.60
2018-04-12T21:13:44.356Z,18.60
2018-04-12T21:16:13.264Z,18.50
2018-04-12T21:18:41.524Z,18.50
2018-04-12T21:21:10.417Z,18.50
2018-04-12T21:23:39.353Z,18.50
2018-04-12T21:26:07.528Z,18.50
2018-04-12T21:28:38.572Z,18.40
2018-04-12T21:31:06.725Z,18.40
2018-04-12T21:33:35.497Z,18.40
2018-04-12T21:36:03.638Z,18.40
2018-04-12T21:38:32.523Z,18.40
2018-04-12T21:41:00.673Z,18.30
2018-04-12T21:43:28.934Z,18.30
2018-04-12T21:45:57.132Z,18.30
2018-04-12T21:48:26.143Z,18.20
2018-04-12T21:50:55.095Z,18.20
2018-04-12T21:53:23.215Z,18.20
2018-04-12T21:55:52.240Z,18.20
2018-04-12T21:58:20.434Z,18.20
2018-04-12T22:00:48.560Z,18.20
2018-04-12T22:03:17.473Z,18.10
2018-04-12T22:05:45.640Z,18.10
2018-04-12T22:08:13.826Z,18.10
2018-04-12T22:10:42.021Z,18.10
2018-04-12T22:13:10.203Z,18.10
2018-04-12T22:15:38.332Z,18.10
2018-04-12T22:18:06.488Z,18.00
2018-04-12T22:20:34.659Z,18.00
2018-04-12T22:23:03.550Z,18.00
2018-04-12T22:25:32.498Z,18.00
2018-04-12T22:28:00.653Z,18.00
2018-04-12T22:30:29.553Z,18.00
2018-04-12T22:32:57.983Z,18.00
2018-04-12T22:35:26.873Z,18.00
2018-04-12T22:37:55.755Z,18.00
2018-04-12T22:40:24.681Z,18.10
2018-04-12T22:42:52.871Z,18.00
2018-04-12T22:45:21.029Z,18.10
2018-04-12T22:47:49.188Z,18.10
2018-04-12T22:50:17.361Z,18.20
2018-04-12T22:52:46.204Z,18.20
2018-04-12T22:55:14.355Z,18.30
2018-04-12T22:57:42.529Z,18.40
2018-04-12T23:00:10.700Z,18.40
2018-04-12T23:02:38.823Z,18.40
2018-04-12T23:05:07.761Z,18.40
2018-04-12T23:07:35.879Z,18.40
2018-04-12T23:10:04.849Z,18.40
2018-04-12T23:12:33.018Z,18.40
2018-04-12T23:15:01.170Z,18.40
2018-04-12T23:17:29.349Z,18.40
2018-04-12T23:19:57.469Z,18.40
2018-04-12T23:22:25.630Z,18.50
2018-04-12T23:24:54.551Z,18.40
2018-04-12T23:27:22.671Z,18.40
2018-04-12T23:29:50.819Z,18.40
2018-04-12T23:32:19.012Z,18.40
2018-04-12T23:34:47.168Z,18.40
2018-04-12T23:37:15.341Z,18.30
2018-04-12T23:39:43.523Z,18.30
2018-04-12T23:42:11.679Z,18.30
2018-04-12T23:44:39.803Z,18.30
2018-04-12T23:47:08.730Z,18.20
2018-04-12T23:49:37.087Z,18.30
2018-04-12T23:52:05.235Z,18.30
2018-04-12T23:54:33.409Z,18.20
2018-04-12T23:57:02.294Z,18.20
2018-04-12T23:59:31.160Z,18.20
